Terminal Aerodrome Forecast
Issued by NWS Denver/Boulder, CO

Home | Current Version | Previous Version | Text Only | Print | Product List | Glossary On
Versions: 1 2 3 4 5 6 7 8 9 10 11 12 13 14 15 16 17 18 19 20 21 22 23 24 25 26 27 28 29 30 31 32 33 34 35 36 37 38 39 40 41 42 43 44 45 46 47 48 49 50
000
FTUS45 KBOU 252100 AAA
TAFDEN
TAF AMD
KDEN 252100Z 2521/2624 07010KT P6SM VCTS SCT050CB BKN100
      TEMPO 2522/2524 6SM SHRA BKN050
     FM260100 12009KT P6SM SCT060 BKN100
     FM260700 20009KT P6SM SCT080 BKN120
     FM261400 VRB05KT P6SM FEW080 SCT130 BKN220
     FM261900 11008KT P6SM SCT060 BKN120 PROB30 2621/2624 -TSRA
      BKN060CB=

USA.gov is the U.S. government's official web portal to all federal, state and local government web resources and services.